This is the latest recevied weather packets stored in our database for station/object N9JXN-13. If no packets are shown the sender has not sent any weather packets the latest 10 day(s).
| Time | Temp. | Humidity | Pressure | Rain* | Wind** | Luminosity | Snow |
|---|---|---|---|---|---|---|---|
| 1777393516 | 12.78° C | 76% | 1014.9 hPa | 0 mm | - | 272 W/m² | - |
| 1777393217 | 12.78° C | 77% | 1014.9 hPa | 0 mm | - | 292 W/m² | - |
| 1777392316 | 12.78° C | 76% | 1014.1 hPa | 0 mm | - | 320 W/m² | - |
| 1777386316 | 11.67° C | 78% | 1013.6 hPa | 0 mm | - | 123 W/m² | - |
| 1777382716 | 11.11° C | 84% | 1012.9 hPa | 0 mm | - | 54 W/m² | - |
| 1777382416 | 10.56° C | 84% | 1012.9 hPa | 0 mm | - | 83 W/m² | - |
| 1777381815 | 10.56° C | 83% | 1012.8 hPa | 0 mm | - | 83 W/m² | - |
| 1777378816 | 10.56° C | 84% | 1011.6 hPa | 0 mm | - | 23 W/m² | - |
| 1777377615 | 10.56° C | 84% | 1011 hPa | 0 mm | - | 16 W/m² | - |
| 1777376416 | 10.56° C | 84% | 1010.4 hPa | 0 mm | - | 12 W/m² | - |
| 1777374316 | 10.56° C | 84% | 1009.5 hPa | 0 mm | - | 0 W/m² | - |
| 1777373416 | 11.11° C | 84% | 1009.1 hPa | 0 mm | - | 0 W/m² | - |
| 1777371315 | 11.11° C | 83% | 1008.7 hPa | 0 mm | - | 0 W/m² | - |
| 1777368916 | 11.67° C | 84% | 1008.4 hPa | 0 mm | - | 0 W/m² | - |
| 1777366817 | 12.22° C | 83% | 1007.8 hPa | 0 mm | - | 0 W/m² | - |
| 1777365916 | 12.22° C | 84% | 1007.2 hPa | 0 mm | - | 0 W/m² | - |
| 1777364415 | 12.78° C | 85% | 1006.7 hPa | 0 mm | - | 0 W/m² | - |
| 1777360816 | 13.89° C | 88% | 1006 hPa | 0 mm | - | 0 W/m² | - |
| 1777359617 | 14.44° C | 88% | 1005.8 hPa | 0 mm | - | 0 W/m² | - |
| 1777358416 | 14.44° C | 89% | 1005.3 hPa | 0 mm | - | 0 W/m² | - |
| 1777354816 | 15.56° C | 93% | 1005 hPa | 0 mm | - | 0 W/m² | - |
| 1777354515 | 15.56° C | 93% | 1004.9 hPa | 0 mm | - | 0 W/m² | - |
| 1777351215 | 15° C | 95% | 1004 hPa | 0 mm | - | 0 W/m² | - |
| 1777350615 | 15° C | 95% | 1003.9 hPa | 0 mm | - | 0 W/m² | - |
* Rain latest hour (hover to see other rain measurements)
** Current wind speed in m/s (hover to see current wind gust speed)